createdAt,value
2023-05-04T00:00:52.845Z,21.23
2023-05-04T00:03:20.582Z,20.48
2023-05-04T00:05:48.301Z,21.75
2023-05-04T00:08:15.955Z,21.20
2023-05-04T00:10:43.561Z,21.33
2023-05-04T00:13:12.692Z,22.45
2023-05-04T00:15:40.367Z,21.38
2023-05-04T00:18:08.592Z,22.05
2023-05-04T00:20:36.232Z,20.92
2023-05-04T00:23:03.897Z,20.98
2023-05-04T00:25:31.643Z,20.88
2023-05-04T00:27:59.288Z,22.67
2023-05-04T00:30:28.224Z,21.10
2023-05-04T00:32:55.880Z,22.42
2023-05-04T00:35:23.513Z,21.25
2023-05-04T00:37:51.182Z,21.40
2023-05-04T00:40:18.773Z,22.17
2023-05-04T00:42:46.382Z,22.00
2023-05-04T00:45:14.865Z,22.13
2023-05-04T00:47:44.140Z,20.17
2023-05-04T00:50:13.305Z,22.63
2023-05-04T00:52:42.287Z,22.33
2023-05-04T00:55:10.851Z,22.65
2023-05-04T00:57:38.696Z,23.33
2023-05-04T01:00:08.543Z,20.92
2023-05-04T01:02:36.416Z,22.67
2023-05-04T01:05:06.248Z,22.33
2023-05-04T01:07:40.590Z,22.55
2023-05-04T01:10:12.681Z,24.73
2023-05-04T01:12:42.688Z,22.55
2023-05-04T01:15:11.383Z,22.52
2023-05-04T01:17:39.520Z,21.40
2023-05-04T01:20:10.474Z,23.55
2023-05-04T01:22:39.943Z,22.45
2023-05-04T01:25:09.151Z,22.95
2023-05-04T01:27:41.441Z,22.20
2023-05-04T01:30:13.852Z,22.23
2023-05-04T01:32:42.913Z,21.73
2023-05-04T01:35:12.247Z,23.25
2023-05-04T01:37:41.238Z,22.58
2023-05-04T01:40:09.979Z,22.90
2023-05-04T01:42:37.643Z,22.85
2023-05-04T01:45:05.781Z,23.05
2023-05-04T01:47:34.632Z,23.48
2023-05-04T01:50:02.693Z,24.13
2023-05-04T01:52:30.472Z,23.52
2023-05-04T01:54:59.459Z,24.45
2023-05-04T01:57:27.099Z,22.90
2023-05-04T01:59:54.717Z,24.95
2023-05-04T02:02:22.362Z,23.95
2023-05-04T02:04:49.991Z,23.52
2023-05-04T02:07:17.631Z,22.58
2023-05-04T02:09:45.277Z,23.48
2023-05-04T02:12:14.230Z,23.58
2023-05-04T02:14:41.888Z,24.02
2023-05-04T02:17:09.790Z,24.83
2023-05-04T02:19:37.433Z,23.50
2023-05-04T02:22:05.016Z,24.00
2023-05-04T02:24:32.669Z,25.55
2023-05-04T02:27:00.291Z,23.58
2023-05-04T02:29:29.282Z,24.80
2023-05-04T02:31:56.912Z,24.15
2023-05-04T02:34:24.610Z,23.45
2023-05-04T02:36:52.240Z,23.52
2023-05-04T02:39:19.872Z,24.15
2023-05-04T02:41:47.460Z,25.30
2023-05-04T02:44:15.127Z,24.98
2023-05-04T02:46:44.111Z,24.58
2023-05-04T02:49:11.745Z,22.85
2023-05-04T02:51:39.343Z,24.75
2023-05-04T02:54:08.418Z,23.75
2023-05-04T02:56:36.077Z,24.08
2023-05-04T02:59:03.680Z,24.88
2023-05-04T03:01:33.333Z,24.15
2023-05-04T03:04:03.708Z,25.48
2023-05-04T03:06:31.633Z,24.13
2023-05-04T03:08:59.232Z,24.73
2023-05-04T03:11:27.087Z,23.05
2023-05-04T03:13:54.694Z,25.73
2023-05-04T03:16:22.501Z,26.08
2023-05-04T03:18:59.235Z,25.40
2023-05-04T03:21:28.244Z,24.42
2023-05-04T03:23:56.004Z,24.90
2023-05-04T03:26:23.647Z,25.77
2023-05-04T03:28:51.209Z,24.73
2023-05-04T03:31:18.828Z,26.10
2023-05-04T03:33:46.434Z,25.77
2023-05-04T03:36:14.029Z,25.98
2023-05-04T03:38:42.967Z,25.40
2023-05-04T03:41:11.667Z,24.27
2023-05-04T03:43:39.390Z,26.85
2023-05-04T03:46:07.082Z,24.90
2023-05-04T03:48:34.692Z,25.55
2023-05-04T03:51:02.342Z,26.45
2023-05-04T03:53:29.959Z,24.88
2023-05-04T03:55:58.898Z,24.02
2023-05-04T03:58:26.573Z,24.30
2023-05-04T04:00:54.334Z,24.15
2023-05-04T04:03:22.186Z,22.48
2023-05-04T04:05:50.043Z,24.13
2023-05-04T04:08:17.983Z,23.67
2023-05-04T04:10:45.789Z,25.65
2023-05-04T04:13:14.885Z,25.90
2023-05-04T04:15:44.876Z,23.33
2023-05-04T04:18:12.529Z,23.80
2023-05-04T04:20:40.152Z,24.45
2023-05-04T04:23:07.873Z,25.55
2023-05-04T04:25:35.466Z,23.67
2023-05-04T04:28:03.158Z,23.95
2023-05-04T04:30:32.129Z,22.30
2023-05-04T04:32:59.759Z,24.73
2023-05-04T04:35:28.029Z,24.77
2023-05-04T04:37:55.659Z,25.45
2023-05-04T04:40:23.336Z,24.83
2023-05-04T04:42:52.166Z,26.15
2023-05-04T04:45:20.467Z,25.45
2023-05-04T04:47:49.528Z,24.35
2023-05-04T04:50:17.509Z,25.08
2023-05-04T04:52:45.121Z,23.63
2023-05-04T04:55:13.284Z,24.30
2023-05-04T04:57:41.084Z,24.98
2023-05-04T05:00:10.356Z,25.75
2023-05-04T05:02:38.357Z,25.60
2023-05-04T05:05:09.265Z,25.13
2023-05-04T05:07:36.869Z,26.20
2023-05-04T05:10:05.241Z,25.73
2023-05-04T05:12:33.241Z,25.88
2023-05-04T05:15:00.912Z,25.52
2023-05-04T05:17:28.578Z,27.48
2023-05-04T05:19:56.262Z,25.02
2023-05-04T05:22:25.226Z,25.75
2023-05-04T05:24:52.894Z,25.33
2023-05-04T05:27:20.542Z,24.10
2023-05-04T05:29:48.174Z,25.42
2023-05-04T05:32:15.752Z,25.33
2023-05-04T05:34:43.557Z,24.73
2023-05-04T05:37:11.197Z,25.75
2023-05-04T05:39:40.153Z,22.92
2023-05-04T05:42:07.749Z,23.02
2023-05-04T05:44:37.332Z,24.67
2023-05-04T05:47:05.052Z,24.38
2023-05-04T05:49:32.860Z,22.75
2023-05-04T05:52:00.498Z,23.65
2023-05-04T05:54:28.452Z,23.45
2023-05-04T05:56:57.408Z,25.20
2023-05-04T05:59:25.073Z,24.42
2023-05-04T06:01:52.725Z,25.05
2023-05-04T06:04:20.701Z,23.83
2023-05-04T06:06:48.398Z,23.60
2023-05-04T06:09:16.053Z,23.75
2023-05-04T06:11:43.692Z,22.42
2023-05-04T06:14:12.732Z,22.02
2023-05-04T06:16:40.397Z,22.85
2023-05-04T06:19:08.052Z,21.95
2023-05-04T06:21:35.861Z,22.38
2023-05-04T06:24:03.764Z,21.77
2023-05-04T06:26:31.362Z,22.13
2023-05-04T06:28:59.083Z,21.17
2023-05-04T06:31:28.180Z,21.63
2023-05-04T06:33:56.428Z,22.63
2023-05-04T06:36:25.648Z,19.92
2023-05-04T06:38:53.235Z,19.60
2023-05-04T06:41:20.950Z,19.70
2023-05-04T06:43:48.678Z,21.08
2023-05-04T06:46:16.497Z,19.00
2023-05-04T06:48:45.553Z,18.17
2023-05-04T06:51:13.182Z,18.30
2023-05-04T06:53:40.810Z,19.85
2023-05-04T06:56:08.882Z,20.30
2023-05-04T06:58:36.723Z,19.27
2023-05-04T07:01:04.405Z,19.25
2023-05-04T07:03:32.516Z,18.63
2023-05-04T07:06:01.618Z,19.00
2023-05-04T07:08:29.239Z,18.98
2023-05-04T07:10:56.930Z,19.15
2023-05-04T07:13:24.682Z,18.73
2023-05-04T07:15:52.425Z,20.40
2023-05-04T07:18:20.047Z,20.15
2023-05-04T07:20:47.656Z,19.90
2023-05-04T07:23:16.738Z,16.95
2023-05-04T07:25:44.781Z,16.70
2023-05-04T07:28:12.409Z,16.67
2023-05-04T07:30:39.999Z,15.48
2023-05-04T07:33:07.593Z,15.18
2023-05-04T07:35:35.207Z,15.98
2023-05-04T07:38:03.694Z,15.27
2023-05-04T07:40:32.809Z,15.40
2023-05-04T07:43:00.474Z,15.23
2023-05-04T07:45:28.069Z,14.88
2023-05-04T07:47:55.743Z,13.75
2023-05-04T07:50:23.459Z,16.00
2023-05-04T07:52:52.191Z,14.85
2023-05-04T07:55:20.024Z,14.68
2023-05-04T07:57:48.961Z,14.27
2023-05-04T08:00:17.360Z,14.95
2023-05-04T08:02:45.129Z,13.93
2023-05-04T08:05:12.916Z,14.48
2023-05-04T08:07:40.567Z,13.85
2023-05-04T08:10:09.734Z,14.68
2023-05-04T08:12:37.395Z,14.18
2023-05-04T08:15:07.645Z,13.75
2023-05-04T08:17:35.907Z,14.43
2023-05-04T08:20:04.710Z,13.82
2023-05-04T08:22:32.570Z,14.80
2023-05-04T08:25:00.224Z,13.38
2023-05-04T08:27:27.880Z,14.40
2023-05-04T08:29:55.510Z,14.07
2023-05-04T08:32:24.545Z,15.05
2023-05-04T08:34:52.672Z,14.80
2023-05-04T08:37:21.242Z,14.75
2023-05-04T08:39:49.866Z,13.63
2023-05-04T08:42:28.079Z,13.63
2023-05-04T08:44:57.246Z,13.45
2023-05-04T08:47:26.661Z,14.52
2023-05-04T08:49:55.017Z,13.73
2023-05-04T08:52:24.203Z,13.85
2023-05-04T08:54:54.367Z,13.15
2023-05-04T08:57:24.238Z,14.38
2023-05-04T08:59:53.523Z,13.65
2023-05-04T09:02:22.870Z,14.75
2023-05-04T09:04:52.701Z,13.88
2023-05-04T09:07:21.074Z,14.02
2023-05-04T09:09:50.817Z,13.63
2023-05-04T09:12:19.125Z,14.93
2023-05-04T09:14:47.424Z,14.07
2023-05-04T09:17:17.637Z,13.77
2023-05-04T09:19:45.550Z,14.18
2023-05-04T09:22:18.160Z,14.40
2023-05-04T09:24:46.458Z,13.45
2023-05-04T09:27:15.800Z,13.93
2023-05-04T09:29:43.618Z,13.52
2023-05-04T09:32:13.399Z,13.57
2023-05-04T09:34:51.252Z,14.38
2023-05-04T09:37:21.166Z,14.00
2023-05-04T09:39:55.579Z,13.82
2023-05-04T09:42:23.997Z,13.80
2023-05-04T09:45:02.130Z,14.25
2023-05-04T09:47:37.207Z,13.65
2023-05-04T09:50:17.642Z,14.32
2023-05-04T09:52:48.290Z,13.95
2023-05-04T09:55:18.130Z,14.20
2023-05-04T09:57:47.012Z,14.27
2023-05-04T10:00:17.321Z,13.38
2023-05-04T10:02:46.469Z,13.80
2023-05-04T10:05:16.178Z,13.63
2023-05-04T10:07:44.105Z,14.13
2023-05-04T10:10:14.481Z,13.30
2023-05-04T10:12:42.752Z,13.43
2023-05-04T10:15:11.847Z,14.00
2023-05-04T10:17:51.829Z,15.07
2023-05-04T10:20:34.423Z,14.48
2023-05-04T10:23:22.596Z,13.95
2023-05-04T10:26:10.258Z,14.05
2023-05-04T10:28:46.618Z,13.82
2023-05-04T10:31:14.323Z,14.23
2023-05-04T10:33:43.128Z,14.25
2023-05-04T10:36:11.630Z,14.32
2023-05-04T10:38:40.154Z,14.73
2023-05-04T10:41:16.204Z,14.35
2023-05-04T10:43:48.581Z,14.30
2023-05-04T10:46:20.198Z,15.07
2023-05-04T10:48:47.975Z,13.80
2023-05-04T10:51:19.399Z,13.88
2023-05-04T10:53:47.306Z,14.38
2023-05-04T10:56:23.463Z,13.63
2023-05-04T10:58:51.282Z,14.60
2023-05-04T11:01:19.097Z,13.95
2023-05-04T11:03:47.612Z,14.38
2023-05-04T11:06:16.937Z,14.45
2023-05-04T11:08:44.815Z,13.80
2023-05-04T11:11:12.563Z,14.05
2023-05-04T11:13:46.225Z,14.18
2023-05-04T11:16:14.282Z,14.15
2023-05-04T11:18:42.468Z,13.63
2023-05-04T11:21:10.527Z,14.90
2023-05-04T11:23:38.996Z,14.50
2023-05-04T11:26:09.282Z,14.15
2023-05-04T11:28:37.733Z,14.15
2023-05-04T11:31:17.003Z,15.15
2023-05-04T11:33:48.386Z,14.32
2023-05-04T11:36:16.589Z,14.48
2023-05-04T11:38:44.309Z,14.75
2023-05-04T11:41:13.013Z,13.82
2023-05-04T11:43:42.727Z,13.68
2023-05-04T11:46:10.645Z,15.18
2023-05-04T11:48:41.235Z,14.73
2023-05-04T11:51:08.917Z,14.98
2023-05-04T11:53:40.605Z,14.85
2023-05-04T11:56:09.730Z,15.07
2023-05-04T11:58:37.801Z,14.52
2023-05-04T12:01:05.979Z,14.43
2023-05-04T12:03:47.990Z,14.10
2023-05-04T12:06:31.901Z,13.82
2023-05-04T12:09:03.357Z,13.85
2023-05-04T12:11:30.959Z,14.55
2023-05-04T12:14:06.216Z,13.98
2023-05-04T12:16:34.454Z,14.27
2023-05-04T12:19:04.036Z,14.18
2023-05-04T12:21:33.169Z,13.68
2023-05-04T12:24:01.072Z,13.98
2023-05-04T12:26:29.788Z,14.65
2023-05-04T12:28:57.421Z,13.45
2023-05-04T12:31:25.651Z,14.82
2023-05-04T12:33:53.692Z,13.52
2023-05-04T12:36:22.618Z,13.88
2023-05-04T12:38:52.160Z,13.90
2023-05-04T12:41:20.024Z,14.15
2023-05-04T12:43:47.702Z,15.23
2023-05-04T12:46:17.378Z,14.05
2023-05-04T12:48:45.039Z,13.35
2023-05-04T12:51:12.643Z,14.77
2023-05-04T12:53:41.582Z,13.77
2023-05-04T12:56:10.555Z,14.70
2023-05-04T12:58:38.169Z,14.25
2023-05-04T13:01:05.829Z,14.02
2023-05-04T13:03:33.694Z,13.85
2023-05-04T13:06:01.374Z,14.65
2023-05-04T13:08:29.057Z,14.18
2023-05-04T13:10:56.670Z,14.30
2023-05-04T13:13:28.668Z,13.35
2023-05-04T13:15:56.635Z,14.07
2023-05-04T13:18:27.048Z,13.93
2023-05-04T13:20:54.811Z,13.80
2023-05-04T13:23:22.526Z,14.48
2023-05-04T13:25:51.126Z,14.60
2023-05-04T13:28:19.199Z,13.77
2023-05-04T13:30:48.269Z,13.60
2023-05-04T13:33:27.945Z,13.73
2023-05-04T13:35:57.984Z,13.23
2023-05-04T13:38:26.270Z,13.18
2023-05-04T13:40:53.899Z,12.77
2023-05-04T13:43:22.404Z,13.80
2023-05-04T13:45:51.385Z,13.57
2023-05-04T13:48:19.122Z,14.32
2023-05-04T13:50:46.811Z,13.40
2023-05-04T13:53:14.459Z,13.98
2023-05-04T13:55:42.097Z,13.55
2023-05-04T13:58:09.833Z,13.45
2023-05-04T14:00:38.065Z,13.25
2023-05-04T14:03:07.120Z,14.25
2023-05-04T14:05:35.669Z,13.88
2023-05-04T14:08:03.828Z,14.15
2023-05-04T14:10:31.444Z,14.30
2023-05-04T14:12:59.122Z,13.43
2023-05-04T14:15:27.536Z,13.77
2023-05-04T14:17:55.289Z,13.57
2023-05-04T14:20:24.525Z,13.32
2023-05-04T14:22:52.167Z,13.70
2023-05-04T14:25:21.400Z,14.18
2023-05-04T14:27:49.149Z,13.70
2023-05-04T14:30:17.359Z,14.02
2023-05-04T14:32:45.262Z,14.30
2023-05-04T14:35:12.964Z,13.75
2023-05-04T14:37:41.926Z,13.95
2023-05-04T14:40:10.619Z,14.43
2023-05-04T14:42:39.343Z,13.98
2023-05-04T14:45:08.284Z,13.98
2023-05-04T14:47:36.394Z,14.20
2023-05-04T14:50:04.942Z,13.90
2023-05-04T14:52:32.742Z,13.18
2023-05-04T14:55:02.635Z,14.68
2023-05-04T14:57:30.254Z,14.40
2023-05-04T14:59:58.061Z,14.05
2023-05-04T15:02:25.719Z,14.43
2023-05-04T15:04:53.910Z,14.05
2023-05-04T15:07:21.705Z,13.70
2023-05-04T15:09:49.303Z,14.82
2023-05-04T15:12:18.478Z,13.40
2023-05-04T15:14:46.767Z,14.20
2023-05-04T15:17:14.398Z,13.90
2023-05-04T15:19:43.541Z,14.02
2023-05-04T15:22:11.223Z,14.13
2023-05-04T15:24:38.886Z,14.82
2023-05-04T15:27:06.502Z,15.00
2023-05-04T15:29:35.461Z,14.60
2023-05-04T15:32:03.098Z,14.68
2023-05-04T15:34:30.846Z,15.98
2023-05-04T15:36:58.479Z,15.40
2023-05-04T15:39:26.502Z,16.25
2023-05-04T15:41:54.179Z,15.32
2023-05-04T15:44:21.885Z,16.35
2023-05-04T15:46:50.916Z,16.15
2023-05-04T15:49:19.216Z,15.55
2023-05-04T15:51:46.847Z,15.70
2023-05-04T15:54:14.486Z,15.27
2023-05-04T15:56:42.113Z,14.65
2023-05-04T15:59:09.753Z,14.57
2023-05-04T16:01:39.885Z,14.77
2023-05-04T16:04:08.917Z,15.23
2023-05-04T16:06:36.529Z,14.18
2023-05-04T16:09:04.215Z,15.23
2023-05-04T16:11:33.089Z,14.98
2023-05-04T16:14:00.747Z,15.10
2023-05-04T16:16:28.557Z,14.60
2023-05-04T16:18:56.355Z,13.82
2023-05-04T16:21:25.501Z,14.32
2023-05-04T16:23:53.156Z,13.95
2023-05-04T16:26:20.794Z,14.07
2023-05-04T16:28:48.460Z,13.88
2023-05-04T16:31:16.230Z,13.93
2023-05-04T16:33:47.300Z,14.65
2023-05-04T16:36:15.147Z,13.52
2023-05-04T16:38:44.082Z,14.70
2023-05-04T16:41:11.722Z,14.90
2023-05-04T16:43:39.312Z,14.02
2023-05-04T16:46:07.025Z,14.48
2023-05-04T16:48:34.690Z,14.35
2023-05-04T16:51:02.298Z,14.38
2023-05-04T16:53:29.898Z,14.93
2023-05-04T16:55:58.942Z,14.32
2023-05-04T16:58:26.867Z,13.88
2023-05-04T17:00:54.503Z,15.15
2023-05-04T17:03:22.599Z,13.90
2023-05-04T17:05:51.098Z,14.48
2023-05-04T17:08:18.742Z,14.23
2023-05-04T17:10:46.321Z,15.48
2023-05-04T17:13:15.381Z,13.75
2023-05-04T17:15:43.066Z,14.02
2023-05-04T17:18:10.688Z,14.77
2023-05-04T17:20:38.328Z,14.02
2023-05-04T17:23:06.167Z,13.73
2023-05-04T17:25:34.024Z,14.30
2023-05-04T17:28:01.667Z,13.70
2023-05-04T17:30:30.646Z,13.80
2023-05-04T17:32:58.256Z,13.70
2023-05-04T17:35:26.748Z,14.35
2023-05-04T17:37:57.948Z,13.32
2023-05-04T17:42:54.699Z,13.95
2023-05-04T17:45:22.505Z,14.18
2023-05-04T17:47:52.708Z,13.88
2023-05-04T17:50:20.968Z,13.70
2023-05-04T17:52:52.586Z,14.70
2023-05-04T17:55:20.312Z,13.02
2023-05-04T17:57:47.938Z,13.55
2023-05-04T18:00:16.212Z,14.15
2023-05-04T18:02:43.961Z,13.50
2023-05-04T18:05:13.260Z,14.23
2023-05-04T18:07:40.916Z,15.40
2023-05-04T18:10:09.156Z,12.93
2023-05-04T18:12:38.186Z,13.25
2023-05-04T18:15:08.198Z,14.07
2023-05-04T18:17:37.610Z,13.68
2023-05-04T18:20:08.129Z,13.15
2023-05-04T18:22:37.383Z,13.57
2023-05-04T18:25:05.745Z,13.23
2023-05-04T18:27:34.340Z,13.77
2023-05-04T18:30:02.091Z,13.32
2023-05-04T18:32:29.807Z,13.45
2023-05-04T18:34:58.280Z,12.52
2023-05-04T18:37:26.266Z,13.88
2023-05-04T18:39:55.212Z,13.20
2023-05-04T18:42:22.934Z,14.63
2023-05-04T18:44:51.796Z,13.88
2023-05-04T18:47:19.556Z,14.43
2023-05-04T18:49:51.019Z,13.73
2023-05-04T18:52:18.666Z,13.88
2023-05-04T18:54:46.282Z,14.30
2023-05-04T18:57:15.218Z,13.75
2023-05-04T18:59:42.848Z,14.05
2023-05-04T19:02:10.632Z,13.88
2023-05-04T19:04:38.242Z,13.38
2023-05-04T19:07:05.906Z,13.63
2023-05-04T19:09:33.609Z,13.65
2023-05-04T19:12:01.397Z,12.65
2023-05-04T19:14:31.872Z,13.57
2023-05-04T19:17:00.701Z,13.63
2023-05-04T19:19:28.555Z,13.88
2023-05-04T19:21:56.259Z,13.00
2023-05-04T19:24:23.939Z,13.13
2023-05-04T19:26:51.569Z,13.77
2023-05-04T19:29:19.178Z,14.00
2023-05-04T19:31:48.550Z,13.40
2023-05-04T19:34:17.697Z,13.73
2023-05-04T19:36:45.638Z,13.65
2023-05-04T19:39:13.424Z,12.90
2023-05-04T19:41:41.050Z,13.02
2023-05-04T19:44:10.098Z,13.23
2023-05-04T19:46:37.843Z,13.48
2023-05-04T19:49:07.051Z,13.85
2023-05-04T19:51:34.892Z,13.55
2023-05-04T19:54:02.523Z,13.65
2023-05-04T19:56:30.154Z,13.25
2023-05-04T19:58:57.835Z,14.75
2023-05-04T20:01:25.550Z,13.98
2023-05-04T20:03:53.713Z,13.45
2023-05-04T20:06:22.695Z,13.40
2023-05-04T20:08:50.411Z,14.18
2023-05-04T20:11:18.003Z,14.23
2023-05-04T20:13:45.634Z,13.13
2023-05-04T20:16:13.580Z,13.50
2023-05-04T20:18:41.655Z,13.35
2023-05-04T20:21:09.327Z,14.55
2023-05-04T20:23:38.306Z,13.88
2023-05-04T20:26:06.171Z,12.55
2023-05-04T20:28:34.007Z,15.27
2023-05-04T20:31:01.614Z,12.90
2023-05-04T20:33:29.248Z,13.20
2023-05-04T20:35:56.911Z,13.43
2023-05-04T20:38:24.516Z,14.38
2023-05-04T20:40:53.494Z,14.00
2023-05-04T20:43:21.118Z,13.95
2023-05-04T20:45:48.835Z,13.63
2023-05-04T20:48:16.481Z,14.32
2023-05-04T20:50:44.058Z,13.38
2023-05-04T20:53:12.370Z,16.30
2023-05-04T20:55:40.485Z,14.38
2023-05-04T20:58:09.492Z,13.73
2023-05-04T21:00:37.248Z,14.20
2023-05-04T21:03:05.305Z,12.85
2023-05-04T21:05:32.986Z,13.23
2023-05-04T21:08:01.133Z,15.13
2023-05-04T21:10:28.892Z,13.90
2023-05-04T21:12:57.002Z,14.20
2023-05-04T21:15:26.517Z,13.60
2023-05-04T21:17:54.215Z,14.05
2023-05-04T21:20:21.916Z,17.88
2023-05-04T21:22:49.589Z,15.52
2023-05-04T21:25:17.373Z,14.73
2023-05-04T21:27:45.352Z,13.27
2023-05-04T21:30:13.379Z,13.48
2023-05-04T21:32:42.505Z,13.15
2023-05-04T21:35:10.542Z,13.40
2023-05-04T21:37:38.216Z,13.60
2023-05-04T21:40:07.194Z,13.73
2023-05-04T21:42:35.021Z,13.30
2023-05-04T21:45:02.820Z,14.32
2023-05-04T21:47:30.513Z,14.68
2023-05-04T21:50:00.817Z,14.70
2023-05-04T21:52:28.406Z,13.93
2023-05-04T21:54:55.994Z,14.55
2023-05-04T21:57:25.270Z,14.80
2023-05-04T21:59:52.883Z,14.35
2023-05-04T22:02:20.453Z,13.70
2023-05-04T22:04:48.092Z,13.68
2023-05-04T22:07:17.033Z,15.43
2023-05-04T22:09:44.692Z,14.73
2023-05-04T22:12:12.915Z,14.55
2023-05-04T22:14:42.334Z,14.63
2023-05-04T22:17:10.319Z,14.50
2023-05-04T22:19:38.189Z,13.75
2023-05-04T22:22:05.840Z,13.68
2023-05-04T22:24:34.834Z,15.18
2023-05-04T22:27:03.306Z,13.45
2023-05-04T22:29:30.948Z,13.05
2023-05-04T22:31:58.536Z,14.00
2023-05-04T22:34:26.146Z,14.38
2023-05-04T22:36:53.756Z,14.40
2023-05-04T22:39:22.050Z,14.32
2023-05-04T22:41:51.060Z,14.32
2023-05-04T22:44:18.699Z,15.70
2023-05-04T22:46:46.395Z,15.02
2023-05-04T22:49:14.257Z,16.90
2023-05-04T22:51:41.901Z,16.58
2023-05-04T22:54:09.950Z,18.75
2023-05-04T22:56:37.633Z,17.38
2023-05-04T22:59:06.668Z,18.10
2023-05-04T23:01:34.397Z,16.88
2023-05-04T23:04:02.300Z,17.58
2023-05-04T23:06:29.944Z,17.35
2023-05-04T23:08:57.981Z,16.98
2023-05-04T23:11:25.611Z,15.52
2023-05-04T23:13:53.237Z,14.40
2023-05-04T23:16:22.321Z,14.93
2023-05-04T23:18:50.000Z,14.70
2023-05-04T23:21:17.626Z,14.60
2023-05-04T23:23:45.244Z,13.48
2023-05-04T23:26:12.895Z,13.15
2023-05-04T23:28:40.612Z,14.80
2023-05-04T23:31:08.323Z,14.07
2023-05-04T23:33:37.266Z,14.20
2023-05-04T23:36:05.201Z,12.98
2023-05-04T23:38:32.938Z,12.95
2023-05-04T23:41:03.314Z,13.90
2023-05-04T23:43:31.774Z,13.73
2023-05-04T23:46:03.551Z,13.57
2023-05-04T23:48:32.077Z,13.48
2023-05-04T23:51:03.952Z,13.23
2023-05-04T23:53:31.827Z,13.35
2023-05-04T23:56:02.731Z,13.32
2023-05-04T23:58:31.673Z,13.18
